sensor_id;sensor_type;location;lat;lon;timestamp;P1;P2;P0
73825;PMS5003;64145;55.060;73.168;2024-02-21T00:00:40;2.33;2.00;0.33
73825;PMS5003;64145;55.060;73.168;2024-02-21T00:03:07;3.00;3.00;1.50
73825;PMS5003;64145;55.060;73.168;2024-02-21T00:05:32;0.00;0.00;0.00
73825;PMS5003;64145;55.060;73.168;2024-02-21T00:07:58;3.00;3.00;1.00
73825;PMS5003;64145;55.060;73.168;2024-02-21T00:10:24;1.00;1.00;1.00
73825;PMS5003;64145;55.060;73.168;2024-02-21T00:12:51;2.00;1.00;0.50
73825;PMS5003;64145;55.060;73.168;2024-02-21T00:15:16;2.00;2.00;1.00
73825;PMS5003;64145;55.060;73.168;2024-02-21T00:17:43;2.50;2.50;1.50
73825;PMS5003;64145;55.060;73.168;2024-02-21T00:20:09;9.00;9.00;7.00
73825;PMS5003;64145;55.060;73.168;2024-02-21T00:22:35;5.00;5.00;2.00
73825;PMS5003;64145;55.060;73.168;2024-02-21T00:25:01;6.00;6.00;2.50
73825;PMS5003;64145;55.060;73.168;2024-02-21T00:27:27;2.00;2.00;0.00
73825;PMS5003;64145;55.060;73.168;2024-02-21T00:29:53;7.00;6.00;2.00
73825;PMS5003;64145;55.060;73.168;2024-02-21T00:32:19;6.00;4.00;1.50
73825;PMS5003;64145;55.060;73.168;2024-02-21T00:34:44;6.00;5.00;2.00
73825;PMS5003;64145;55.060;73.168;2024-02-21T00:37:10;6.00;5.67;2.00
73825;PMS5003;64145;55.060;73.168;2024-02-21T00:39:36;5.00;4.00;1.00
73825;PMS5003;64145;55.060;73.168;2024-02-21T00:42:02;1.00;1.00;0.00
73825;PMS5003;64145;55.060;73.168;2024-02-21T00:44:28;0.00;0.00;0.00
73825;PMS5003;64145;55.060;73.168;2024-02-21T00:46:54;0.00;0.00;0.00
73825;PMS5003;64145;55.060;73.168;2024-02-21T00:49:20;1.00;1.00;0.00
73825;PMS5003;64145;55.060;73.168;2024-02-21T00:51:47;3.00;2.50;1.00
73825;PMS5003;64145;55.060;73.168;2024-02-21T00:54:12;0.00;0.00;0.00
73825;PMS5003;64145;55.060;73.168;2024-02-21T00:56:38;0.67;0.67;0.00
73825;PMS5003;64145;55.060;73.168;2024-02-21T00:59:04;0.00;0.00;0.00
73825;PMS5003;64145;55.060;73.168;2024-02-21T01:01:29;3.00;2.00;2.00
73825;PMS5003;64145;55.060;73.168;2024-02-21T01:03:55;4.67;3.00;2.00
73825;PMS5003;64145;55.060;73.168;2024-02-21T01:06:21;8.00;7.00;5.00
73825;PMS5003;64145;55.060;73.168;2024-02-21T01:08:47;10.50;10.50;7.50
73825;PMS5003;64145;55.060;73.168;2024-02-21T01:11:15;10.00;10.00;7.00
73825;PMS5003;64145;55.060;73.168;2024-02-21T01:13:41;7.00;6.50;5.00
73825;PMS5003;64145;55.060;73.168;2024-02-21T01:16:07;4.50;3.00;3.00
73825;PMS5003;64145;55.060;73.168;2024-02-21T01:18:33;6.50;6.00;3.50
73825;PMS5003;64145;55.060;73.168;2024-02-21T01:20:59;6.50;6.00;4.00
73825;PMS5003;64145;55.060;73.168;2024-02-21T01:23:24;5.00;5.00;2.00
73825;PMS5003;64145;55.060;73.168;2024-02-21T01:25:50;6.50;6.00;3.00
73825;PMS5003;64145;55.060;73.168;2024-02-21T01:28:16;5.00;4.00;1.00
73825;PMS5003;64145;55.060;73.168;2024-02-21T01:30:42;2.50;2.50;1.00
73825;PMS5003;64145;55.060;73.168;2024-02-21T01:33:08;7.00;6.00;3.00
73825;PMS5003;64145;55.060;73.168;2024-02-21T01:35:34;3.00;2.00;1.00
73825;PMS5003;64145;55.060;73.168;2024-02-21T01:37:59;3.00;3.00;2.00
73825;PMS5003;64145;55.060;73.168;2024-02-21T01:40:25;7.00;6.00;3.00
73825;PMS5003;64145;55.060;73.168;2024-02-21T01:42:51;10.00;9.00;6.00
73825;PMS5003;64145;55.060;73.168;2024-02-21T01:45:19;7.50;6.00;3.00
73825;PMS5003;64145;55.060;73.168;2024-02-21T01:47:44;7.00;7.00;3.00
73825;PMS5003;64145;55.060;73.168;2024-02-21T01:50:10;10.50;10.50;5.00
73825;PMS5003;64145;55.060;73.168;2024-02-21T01:52:37;10.00;9.00;4.00
73825;PMS5003;64145;55.060;73.168;2024-02-21T01:55:03;6.00;6.00;3.00
73825;PMS5003;64145;55.060;73.168;2024-02-21T01:57:29;6.00;5.00;2.00
73825;PMS5003;64145;55.060;73.168;2024-02-21T01:59:55;3.00;3.00;2.00
73825;PMS5003;64145;55.060;73.168;2024-02-21T02:02:21;5.50;5.50;5.50
73825;PMS5003;64145;55.060;73.168;2024-02-21T02:04:47;6.00;5.00;3.00
73825;PMS5003;64145;55.060;73.168;2024-02-21T02:07:12;5.50;5.00;3.00
73825;PMS5003;64145;55.060;73.168;2024-02-21T02:09:38;2.50;2.50;1.00
73825;PMS5003;64145;55.060;73.168;2024-02-21T02:12:04;4.67;3.67;2.00
73825;PMS5003;64145;55.060;73.168;2024-02-21T02:14:30;6.00;6.00;3.00
73825;PMS5003;64145;55.060;73.168;2024-02-21T02:16:55;5.00;4.00;1.50
73825;PMS5003;64145;55.060;73.168;2024-02-21T02:19:21;2.00;2.00;0.00
73825;PMS5003;64145;55.060;73.168;2024-02-21T02:21:49;4.33;4.00;3.00
73825;PMS5003;64145;55.060;73.168;2024-02-21T02:24:20;7.00;7.00;4.00
73825;PMS5003;64145;55.060;73.168;2024-02-21T02:26:46;10.50;10.00;5.50
73825;PMS5003;64145;55.060;73.168;2024-02-21T02:29:12;9.50;9.00;6.00
73825;PMS5003;64145;55.060;73.168;2024-02-21T02:31:37;8.00;7.67;5.67
73825;PMS5003;64145;55.060;73.168;2024-02-21T02:34:03;12.33;12.33;11.00
73825;PMS5003;64145;55.060;73.168;2024-02-21T02:36:31;12.00;11.50;8.50
73825;PMS5003;64145;55.060;73.168;2024-02-21T02:38:57;10.33;9.33;7.00
73825;PMS5003;64145;55.060;73.168;2024-02-21T02:41:23;12.33;12.33;10.00
73825;PMS5003;64145;55.060;73.168;2024-02-21T02:43:48;13.00;13.00;10.00
73825;PMS5003;64145;55.060;73.168;2024-02-21T02:46:14;14.50;14.50;11.00
73825;PMS5003;64145;55.060;73.168;2024-02-21T02:48:40;9.00;9.00;5.50
73825;PMS5003;64145;55.060;73.168;2024-02-21T02:51:05;11.33;11.33;7.67
73825;PMS5003;64145;55.060;73.168;2024-02-21T02:53:31;12.00;11.00;8.00
73825;PMS5003;64145;55.060;73.168;2024-02-21T02:55:57;12.67;12.00;9.00
73825;PMS5003;64145;55.060;73.168;2024-02-21T02:58:22;11.00;11.00;7.00
73825;PMS5003;64145;55.060;73.168;2024-02-21T03:00:48;6.00;6.00;4.00
73825;PMS5003;64145;55.060;73.168;2024-02-21T03:03:14;4.00;3.00;1.50
73825;PMS5003;64145;55.060;73.168;2024-02-21T03:05:40;10.00;8.00;5.00
73825;PMS5003;64145;55.060;73.168;2024-02-21T03:08:05;8.00;8.00;3.50
73825;PMS5003;64145;55.060;73.168;2024-02-21T03:10:32;4.33;4.33;2.00
73825;PMS5003;64145;55.060;73.168;2024-02-21T03:12:58;4.00;4.00;2.00
73825;PMS5003;64145;55.060;73.168;2024-02-21T03:15:42;2.00;2.00;1.00
73825;PMS5003;64145;55.060;73.168;2024-02-21T03:18:08;4.00;3.00;1.00
73825;PMS5003;64145;55.060;73.168;2024-02-21T03:20:33;5.00;3.50;3.00
73825;PMS5003;64145;55.060;73.168;2024-02-21T03:22:59;5.00;4.50;3.00
73825;PMS5003;64145;55.060;73.168;2024-02-21T03:25:25;7.50;6.50;3.00
73825;PMS5003;64145;55.060;73.168;2024-02-21T03:27:50;12.00;11.00;7.00
73825;PMS5003;64145;55.060;73.168;2024-02-21T03:30:17;11.00;11.00;7.00
73825;PMS5003;64145;55.060;73.168;2024-02-21T03:32:42;9.33;8.33;6.33
73825;PMS5003;64145;55.060;73.168;2024-02-21T03:35:26;6.67;6.33;3.33
73825;PMS5003;64145;55.060;73.168;2024-02-21T03:37:53;9.50;8.00;6.00
73825;PMS5003;64145;55.060;73.168;2024-02-21T03:40:18;9.67;9.67;6.00
73825;PMS5003;64145;55.060;73.168;2024-02-21T03:42:44;6.00;6.00;3.00
73825;PMS5003;64145;55.060;73.168;2024-02-21T03:45:10;7.00;7.00;3.00
73825;PMS5003;64145;55.060;73.168;2024-02-21T03:47:36;7.00;7.00;3.00
73825;PMS5003;64145;55.060;73.168;2024-02-21T03:50:01;8.00;7.00;3.00
73825;PMS5003;64145;55.060;73.168;2024-02-21T03:52:27;7.67;7.33;4.00
73825;PMS5003;64145;55.060;73.168;2024-02-21T03:54:53;5.00;3.67;2.00
73825;PMS5003;64145;55.060;73.168;2024-02-21T03:57:20;8.50;8.00;5.00
73825;PMS5003;64145;55.060;73.168;2024-02-21T03:59:46;3.50;3.00;1.00
73825;PMS5003;64145;55.060;73.168;2024-02-21T04:02:12;3.00;2.00;1.00
73825;PMS5003;64145;55.060;73.168;2024-02-21T04:04:42;6.50;6.50;5.00
73825;PMS5003;64145;55.060;73.168;2024-02-21T04:07:08;11.00;10.00;6.50
73825;PMS5003;64145;55.060;73.168;2024-02-21T04:09:34;6.50;5.00;2.00
73825;PMS5003;64145;55.060;73.168;2024-02-21T04:12:00;6.00;5.00;3.00
73825;PMS5003;64145;55.060;73.168;2024-02-21T04:14:26;5.00;5.00;1.00
73825;PMS5003;64145;55.060;73.168;2024-02-21T04:16:51;4.00;4.00;2.00
73825;PMS5003;64145;55.060;73.168;2024-02-21T04:19:17;5.00;4.50;2.00
73825;PMS5003;64145;55.060;73.168;2024-02-21T04:21:43;8.00;7.50;5.00
73825;PMS5003;64145;55.060;73.168;2024-02-21T04:24:09;9.00;7.50;3.50
73825;PMS5003;64145;55.060;73.168;2024-02-21T04:26:35;7.67;6.67;3.33
73825;PMS5003;64145;55.060;73.168;2024-02-21T04:29:00;10.67;9.67;5.33
73825;PMS5003;64145;55.060;73.168;2024-02-21T04:31:26;8.33;8.00;2.00
73825;PMS5003;64145;55.060;73.168;2024-02-21T04:33:52;11.50;10.00;6.50
73825;PMS5003;64145;55.060;73.168;2024-02-21T04:36:18;6.00;5.00;2.00
73825;PMS5003;64145;55.060;73.168;2024-02-21T04:38:43;6.00;5.00;2.00
73825;PMS5003;64145;55.060;73.168;2024-02-21T04:41:09;7.00;5.00;2.00
73825;PMS5003;64145;55.060;73.168;2024-02-21T04:43:35;6.00;5.00;2.00
73825;PMS5003;64145;55.060;73.168;2024-02-21T04:46:00;6.67;5.33;2.33
73825;PMS5003;64145;55.060;73.168;2024-02-21T04:48:26;7.33;6.00;2.33
73825;PMS5003;64145;55.060;73.168;2024-02-21T04:50:52;6.00;4.00;1.00
73825;PMS5003;64145;55.060;73.168;2024-02-21T04:53:17;8.00;7.00;3.00
73825;PMS5003;64145;55.060;73.168;2024-02-21T04:55:43;5.00;3.50;1.00
73825;PMS5003;64145;55.060;73.168;2024-02-21T04:58:09;3.00;3.00;1.50
73825;PMS5003;64145;55.060;73.168;2024-02-21T05:00:35;5.00;4.67;2.00
73825;PMS5003;64145;55.060;73.168;2024-02-21T05:03:01;5.00;5.00;4.00
73825;PMS5003;64145;55.060;73.168;2024-02-21T05:05:27;1.00;1.00;0.00
73825;PMS5003;64145;55.060;73.168;2024-02-21T05:07:52;3.00;3.00;2.00
73825;PMS5003;64145;55.060;73.168;2024-02-21T05:10:18;7.50;6.50;3.50
73825;PMS5003;64145;55.060;73.168;2024-02-21T05:12:44;7.00;6.00;2.00
73825;PMS5003;64145;55.060;73.168;2024-02-21T05:15:10;5.33;4.00;1.67
73825;PMS5003;64145;55.060;73.168;2024-02-21T05:17:36;7.00;6.00;3.00
73825;PMS5003;64145;55.060;73.168;2024-02-21T05:20:01;9.33;8.00;3.67
73825;PMS5003;64145;55.060;73.168;2024-02-21T05:22:27;5.00;4.50;1.00
73825;PMS5003;64145;55.060;73.168;2024-02-21T05:24:53;3.50;3.00;2.00
73825;PMS5003;64145;55.060;73.168;2024-02-21T05:27:19;10.00;8.00;4.00
73825;PMS5003;64145;55.060;73.168;2024-02-21T05:29:44;8.00;7.00;3.00
73825;PMS5003;64145;55.060;73.168;2024-02-21T05:32:10;2.50;2.00;0.00
73825;PMS5003;64145;55.060;73.168;2024-02-21T05:34:36;8.00;7.33;4.00
73825;PMS5003;64145;55.060;73.168;2024-02-21T05:37:01;5.00;4.00;2.00
73825;PMS5003;64145;55.060;73.168;2024-02-21T05:39:27;3.00;3.00;1.50
73825;PMS5003;64145;55.060;73.168;2024-02-21T05:44:39;5.00;5.00;2.00
73825;PMS5003;64145;55.060;73.168;2024-02-21T05:47:04;3.50;3.00;1.00
73825;PMS5003;64145;55.060;73.168;2024-02-21T05:49:35;5.67;5.00;2.67
73825;PMS5003;64145;55.060;73.168;2024-02-21T05:52:01;9.00;7.00;4.00
73825;PMS5003;64145;55.060;73.168;2024-02-21T05:54:26;5.33;3.00;1.00
73825;PMS5003;64145;55.060;73.168;2024-02-21T05:56:52;6.50;6.00;2.00
73825;PMS5003;64145;55.060;73.168;2024-02-21T05:59:18;3.00;2.00;0.00
73825;PMS5003;64145;55.060;73.168;2024-02-21T06:01:44;6.00;6.00;2.00
73825;PMS5003;64145;55.060;73.168;2024-02-21T06:04:10;5.50;5.00;2.00
73825;PMS5003;64145;55.060;73.168;2024-02-21T06:06:35;2.00;2.00;0.00
73825;PMS5003;64145;55.060;73.168;2024-02-21T06:09:01;4.00;3.00;2.00
73825;PMS5003;64145;55.060;73.168;2024-02-21T06:11:28;3.00;2.00;0.00
73825;PMS5003;64145;55.060;73.168;2024-02-21T06:13:54;2.00;2.00;1.00
73825;PMS5003;64145;55.060;73.168;2024-02-21T06:16:38;6.00;6.00;2.00
73825;PMS5003;64145;55.060;73.168;2024-02-21T06:19:04;5.00;4.00;2.00
73825;PMS5003;64145;55.060;73.168;2024-02-21T06:21:29;5.00;4.00;2.00
73825;PMS5003;64145;55.060;73.168;2024-02-21T06:23:55;2.50;2.50;1.00
73825;PMS5003;64145;55.060;73.168;2024-02-21T06:26:21;0.00;0.00;0.00
73825;PMS5003;64145;55.060;73.168;2024-02-21T06:28:47;0.00;0.00;0.00
73825;PMS5003;64145;55.060;73.168;2024-02-21T06:31:12;3.00;3.00;1.33
73825;PMS5003;64145;55.060;73.168;2024-02-21T06:33:38;5.33;5.00;2.00
73825;PMS5003;64145;55.060;73.168;2024-02-21T06:36:06;7.00;5.00;2.00
73825;PMS5003;64145;55.060;73.168;2024-02-21T06:38:31;6.00;4.00;1.00
73825;PMS5003;64145;55.060;73.168;2024-02-21T06:40:59;4.00;4.00;1.00
73825;PMS5003;64145;55.060;73.168;2024-02-21T06:43:25;3.00;2.67;1.67
73825;PMS5003;64145;55.060;73.168;2024-02-21T06:45:51;2.00;1.00;0.00
73825;PMS5003;64145;55.060;73.168;2024-02-21T06:48:17;1.50;1.00;0.00
73825;PMS5003;64145;55.060;73.168;2024-02-21T06:50:44;3.00;3.00;0.00
73825;PMS5003;64145;55.060;73.168;2024-02-21T06:53:10;6.00;6.00;2.00
73825;PMS5003;64145;55.060;73.168;2024-02-21T06:55:35;7.00;7.00;3.00
73825;PMS5003;64145;55.060;73.168;2024-02-21T06:58:01;5.00;3.00;1.00
73825;PMS5003;64145;55.060;73.168;2024-02-21T07:00:28;1.50;1.50;0.00
73825;PMS5003;64145;55.060;73.168;2024-02-21T07:02:54;2.00;1.00;0.00
73825;PMS5003;64145;55.060;73.168;2024-02-21T07:05:19;1.00;1.00;0.00
73825;PMS5003;64145;55.060;73.168;2024-02-21T07:07:45;3.00;3.00;2.00
73825;PMS5003;64145;55.060;73.168;2024-02-21T07:10:11;5.00;4.00;1.00
73825;PMS5003;64145;55.060;73.168;2024-02-21T07:12:36;5.00;5.00;1.00
73825;PMS5003;64145;55.060;73.168;2024-02-21T07:15:07;4.00;3.50;2.00
73825;PMS5003;64145;55.060;73.168;2024-02-21T07:17:33;4.00;3.00;1.00
73825;PMS5003;64145;55.060;73.168;2024-02-21T07:19:58;2.00;2.00;1.00
73825;PMS5003;64145;55.060;73.168;2024-02-21T07:22:24;5.33;5.00;2.00
73825;PMS5003;64145;55.060;73.168;2024-02-21T07:24:50;3.00;2.50;1.00
73825;PMS5003;64145;55.060;73.168;2024-02-21T07:27:16;3.00;3.00;1.00
73825;PMS5003;64145;55.060;73.168;2024-02-21T07:29:42;3.00;3.00;1.00
73825;PMS5003;64145;55.060;73.168;2024-02-21T07:32:08;5.00;4.00;2.00
73825;PMS5003;64145;55.060;73.168;2024-02-21T07:34:33;4.00;3.00;1.50
73825;PMS5003;64145;55.060;73.168;2024-02-21T07:37:19;3.50;3.00;2.00
73825;PMS5003;64145;55.060;73.168;2024-02-21T07:39:44;6.00;6.00;3.00
73825;PMS5003;64145;55.060;73.168;2024-02-21T07:42:10;1.00;1.00;0.00
73825;PMS5003;64145;55.060;73.168;2024-02-21T07:44:36;10.50;8.50;6.00
73825;PMS5003;64145;55.060;73.168;2024-02-21T07:47:02;12.00;11.00;7.00
73825;PMS5003;64145;55.060;73.168;2024-02-21T07:49:27;6.00;6.00;3.00
73825;PMS5003;64145;55.060;73.168;2024-02-21T07:51:53;3.00;3.00;1.00
73825;PMS5003;64145;55.060;73.168;2024-02-21T07:54:19;5.00;4.00;2.00
73825;PMS5003;64145;55.060;73.168;2024-02-21T07:59:29;3.00;2.00;1.00
73825;PMS5003;64145;55.060;73.168;2024-02-21T08:01:58;3.00;2.00;1.00
73825;PMS5003;64145;55.060;73.168;2024-02-21T08:04:24;5.00;3.50;1.00
73825;PMS5003;64145;55.060;73.168;2024-02-21T08:06:53;5.00;5.00;2.00
73825;PMS5003;64145;55.060;73.168;2024-02-21T08:09:21;4.50;4.50;2.00
73825;PMS5003;64145;55.060;73.168;2024-02-21T08:11:47;13.00;12.67;8.00
73825;PMS5003;64145;55.060;73.168;2024-02-21T08:14:13;13.00;12.50;7.00
73825;PMS5003;64145;55.060;73.168;2024-02-21T08:16:44;9.67;9.00;4.67
73825;PMS5003;64145;55.060;73.168;2024-02-21T08:19:10;3.00;3.00;1.00
73825;PMS5003;64145;55.060;73.168;2024-02-21T08:21:36;3.00;3.00;1.00
73825;PMS5003;64145;55.060;73.168;2024-02-21T08:24:02;3.00;3.00;1.00
73825;PMS5003;64145;55.060;73.168;2024-02-21T08:26:27;3.00;3.00;1.00
73825;PMS5003;64145;55.060;73.168;2024-02-21T08:28:55;5.33;4.00;2.00
73825;PMS5003;64145;55.060;73.168;2024-02-21T08:31:24;3.00;2.00;0.00
73825;PMS5003;64145;55.060;73.168;2024-02-21T08:33:58;2.50;2.00;1.00
73825;PMS5003;64145;55.060;73.168;2024-02-21T08:36:30;2.00;1.00;0.00
73825;PMS5003;64145;55.060;73.168;2024-02-21T08:38:57;2.00;2.00;1.00
73825;PMS5003;64145;55.060;73.168;2024-02-21T08:41:23;1.00;0.00;0.00
73825;PMS5003;64145;55.060;73.168;2024-02-21T08:43:53;5.00;3.00;2.00
73825;PMS5003;64145;55.060;73.168;2024-02-21T08:46:19;2.00;2.00;1.00
73825;PMS5003;64145;55.060;73.168;2024-02-21T08:48:46;5.00;4.50;1.00
73825;PMS5003;64145;55.060;73.168;2024-02-21T08:51:12;2.00;2.00;0.00
73825;PMS5003;64145;55.060;73.168;2024-02-21T08:53:37;2.00;1.50;0.00
73825;PMS5003;64145;55.060;73.168;2024-02-21T08:56:03;2.50;2.00;1.00
73825;PMS5003;64145;55.060;73.168;2024-02-21T08:58:29;2.00;2.00;1.00
73825;PMS5003;64145;55.060;73.168;2024-02-21T09:00:55;3.00;3.00;1.00
73825;PMS5003;64145;55.060;73.168;2024-02-21T09:03:20;5.50;4.00;2.00
73825;PMS5003;64145;55.060;73.168;2024-02-21T09:05:46;11.00;9.00;5.00
73825;PMS5003;64145;55.060;73.168;2024-02-21T09:08:12;4.50;3.00;0.00
73825;PMS5003;64145;55.060;73.168;2024-02-21T09:10:56;5.00;5.00;1.00
73825;PMS5003;64145;55.060;73.168;2024-02-21T09:13:22;5.00;4.00;2.00
73825;PMS5003;64145;55.060;73.168;2024-02-21T09:15:49;3.50;3.00;1.00
73825;PMS5003;64145;55.060;73.168;2024-02-21T09:18:15;2.00;2.00;0.00
73825;PMS5003;64145;55.060;73.168;2024-02-21T09:20:41;3.00;3.00;2.00
73825;PMS5003;64145;55.060;73.168;2024-02-21T09:23:07;1.00;1.00;0.00
73825;PMS5003;64145;55.060;73.168;2024-02-21T09:25:33;1.00;1.00;0.00
73825;PMS5003;64145;55.060;73.168;2024-02-21T09:27:59;2.50;2.00;1.00
73825;PMS5003;64145;55.060;73.168;2024-02-21T09:30:25;3.00;3.00;1.00
73825;PMS5003;64145;55.060;73.168;2024-02-21T09:32:50;6.00;4.00;2.00
73825;PMS5003;64145;55.060;73.168;2024-02-21T09:35:16;3.00;1.00;0.00
73825;PMS5003;64145;55.060;73.168;2024-02-21T09:37:42;3.50;2.50;0.00
73825;PMS5003;64145;55.060;73.168;2024-02-21T09:40:07;2.00;2.00;0.00
73825;PMS5003;64145;55.060;73.168;2024-02-21T09:42:38;2.00;2.00;0.00
73825;PMS5003;64145;55.060;73.168;2024-02-21T09:45:15;2.00;2.00;1.00
73825;PMS5003;64145;55.060;73.168;2024-02-21T09:50:12;6.00;5.00;2.00
73825;PMS5003;64145;55.060;73.168;2024-02-21T09:52:39;2.00;2.00;1.00
73825;PMS5003;64145;55.060;73.168;2024-02-21T09:55:06;0.00;0.00;0.00
73825;PMS5003;64145;55.060;73.168;2024-02-21T09:57:33;0.00;0.00;0.00
73825;PMS5003;64145;55.060;73.168;2024-02-21T09:59:59;2.00;2.00;0.00
73825;PMS5003;64145;55.060;73.168;2024-02-21T10:02:29;0.00;0.00;0.00
73825;PMS5003;64145;55.060;73.168;2024-02-21T10:04:55;1.00;0.00;0.00
73825;PMS5003;64145;55.060;73.168;2024-02-21T10:07:20;1.00;0.00;0.00
73825;PMS5003;64145;55.060;73.168;2024-02-21T10:09:49;1.50;1.00;0.00
73825;PMS5003;64145;55.060;73.168;2024-02-21T10:12:15;2.00;2.00;0.00
73825;PMS5003;64145;55.060;73.168;2024-02-21T10:14:44;0.00;0.00;0.00
73825;PMS5003;64145;55.060;73.168;2024-02-21T10:17:15;1.00;1.00;0.00
73825;PMS5003;64145;55.060;73.168;2024-02-21T10:19:41;1.00;1.00;1.00
73825;PMS5003;64145;55.060;73.168;2024-02-21T10:22:07;1.00;1.00;1.00
73825;PMS5003;64145;55.060;73.168;2024-02-21T10:24:33;0.00;0.00;0.00
73825;PMS5003;64145;55.060;73.168;2024-02-21T10:27:02;0.00;0.00;0.00
73825;PMS5003;64145;55.060;73.168;2024-02-21T10:29:31;3.00;2.00;2.00
73825;PMS5003;64145;55.060;73.168;2024-02-21T10:32:04;0.00;0.00;0.00
73825;PMS5003;64145;55.060;73.168;2024-02-21T10:34:30;0.00;0.00;0.00
73825;PMS5003;64145;55.060;73.168;2024-02-21T10:37:02;0.00;0.00;0.00
73825;PMS5003;64145;55.060;73.168;2024-02-21T10:39:29;1.00;1.00;0.00
73825;PMS5003;64145;55.060;73.168;2024-02-21T10:41:55;1.00;1.00;0.00
73825;PMS5003;64145;55.060;73.168;2024-02-21T10:44:23;5.00;5.00;2.00
73825;PMS5003;64145;55.060;73.168;2024-02-21T10:46:49;2.00;1.00;0.00
73825;PMS5003;64145;55.060;73.168;2024-02-21T10:49:16;3.00;1.00;0.00
73825;PMS5003;64145;55.060;73.168;2024-02-21T10:51:46;1.00;1.00;0.00
73825;PMS5003;64145;55.060;73.168;2024-02-21T10:54:24;1.00;1.00;0.00
73825;PMS5003;64145;55.060;73.168;2024-02-21T10:56:54;2.00;2.00;0.00
73825;PMS5003;64145;55.060;73.168;2024-02-21T10:59:22;1.00;1.00;0.00
73825;PMS5003;64145;55.060;73.168;2024-02-21T11:01:49;1.00;0.00;0.00
73825;PMS5003;64145;55.060;73.168;2024-02-21T11:04:14;1.00;1.00;0.00
73825;PMS5003;64145;55.060;73.168;2024-02-21T11:06:40;2.00;2.00;0.50
73825;PMS5003;64145;55.060;73.168;2024-02-21T11:09:07;4.67;3.00;2.00
73825;PMS5003;64145;55.060;73.168;2024-02-21T11:11:33;5.00;3.00;1.00
73825;PMS5003;64145;55.060;73.168;2024-02-21T11:14:18;2.00;1.00;0.00
73825;PMS5003;64145;55.060;73.168;2024-02-21T11:16:44;0.00;0.00;0.00
73825;PMS5003;64145;55.060;73.168;2024-02-21T11:19:23;2.00;1.00;0.00
73825;PMS5003;64145;55.060;73.168;2024-02-21T11:21:50;2.00;1.00;0.00
73825;PMS5003;64145;55.060;73.168;2024-02-21T11:24:29;0.00;0.00;0.00
73825;PMS5003;64145;55.060;73.168;2024-02-21T11:26:56;1.00;1.00;0.00
73825;PMS5003;64145;55.060;73.168;2024-02-21T11:29:25;1.00;1.00;0.00
73825;PMS5003;64145;55.060;73.168;2024-02-21T11:31:51;0.00;0.00;0.00
73825;PMS5003;64145;55.060;73.168;2024-02-21T11:34:17;0.00;0.00;0.00
73825;PMS5003;64145;55.060;73.168;2024-02-21T11:36:50;2.00;2.00;1.00
73825;PMS5003;64145;55.060;73.168;2024-02-21T11:39:24;1.33;0.33;0.00
73825;PMS5003;64145;55.060;73.168;2024-02-21T11:44:45;0.00;0.00;0.00
73825;PMS5003;64145;55.060;73.168;2024-02-21T11:47:11;0.00;0.00;0.00
73825;PMS5003;64145;55.060;73.168;2024-02-21T11:49:38;6.00;5.50;3.50
73825;PMS5003;64145;55.060;73.168;2024-02-21T11:52:04;6.00;5.00;2.33
73825;PMS5003;64145;55.060;73.168;2024-02-21T11:54:31;2.50;1.00;0.00
73825;PMS5003;64145;55.060;73.168;2024-02-21T11:56:57;0.00;0.00;0.00
73825;PMS5003;64145;55.060;73.168;2024-02-21T11:59:22;0.00;0.00;0.00
73825;PMS5003;64145;55.060;73.168;2024-02-21T12:01:48;5.00;3.50;1.00
73825;PMS5003;64145;55.060;73.168;2024-02-21T12:04:15;1.00;1.00;0.00
73825;PMS5003;64145;55.060;73.168;2024-02-21T12:06:43;2.00;1.00;0.00
73825;PMS5003;64145;55.060;73.168;2024-02-21T12:09:08;5.00;5.00;2.50
73825;PMS5003;64145;55.060;73.168;2024-02-21T12:11:58;3.00;2.00;1.00
73825;PMS5003;64145;55.060;73.168;2024-02-21T12:14:24;3.00;3.00;1.00
73825;PMS5003;64145;55.060;73.168;2024-02-21T12:17:08;1.33;1.00;0.00
73825;PMS5003;64145;55.060;73.168;2024-02-21T12:19:34;1.00;1.00;0.00
73825;PMS5003;64145;55.060;73.168;2024-02-21T12:22:00;9.00;9.00;6.50
73825;PMS5003;64145;55.060;73.168;2024-02-21T12:24:35;10.00;10.00;6.00
73825;PMS5003;64145;55.060;73.168;2024-02-21T12:27:03;3.50;3.00;1.00
73825;PMS5003;64145;55.060;73.168;2024-02-21T12:29:29;3.00;3.00;1.00
73825;PMS5003;64145;55.060;73.168;2024-02-21T12:31:55;1.00;1.00;0.00
73825;PMS5003;64145;55.060;73.168;2024-02-21T12:34:21;2.00;1.50;0.00
73825;PMS5003;64145;55.060;73.168;2024-02-21T12:37:07;2.33;2.00;1.00
73825;PMS5003;64145;55.060;73.168;2024-02-21T12:39:33;3.00;3.00;2.00
73825;PMS5003;64145;55.060;73.168;2024-02-21T12:41:59;6.33;6.33;3.00
73825;PMS5003;64145;55.060;73.168;2024-02-21T12:44:25;5.00;5.00;3.00
73825;PMS5003;64145;55.060;73.168;2024-02-21T12:46:50;5.00;5.00;2.00
73825;PMS5003;64145;55.060;73.168;2024-02-21T12:49:19;2.50;2.50;1.00
73825;PMS5003;64145;55.060;73.168;2024-02-21T12:51:44;1.00;1.00;0.50
73825;PMS5003;64145;55.060;73.168;2024-02-21T12:54:13;0.00;0.00;0.00
73825;PMS5003;64145;55.060;73.168;2024-02-21T12:59:23;7.33;6.67;4.00
73825;PMS5003;64145;55.060;73.168;2024-02-21T13:02:07;12.00;12.00;7.50
73825;PMS5003;64145;55.060;73.168;2024-02-21T13:04:33;12.00;11.33;10.00
73825;PMS5003;64145;55.060;73.168;2024-02-21T13:06:59;13.00;11.50;8.00
73825;PMS5003;64145;55.060;73.168;2024-02-21T13:09:25;7.50;7.00;3.00
73825;PMS5003;64145;55.060;73.168;2024-02-21T13:11:51;8.00;6.00;4.00
73825;PMS5003;64145;55.060;73.168;2024-02-21T13:14:16;7.50;7.00;3.00
73825;PMS5003;64145;55.060;73.168;2024-02-21T13:16:56;8.00;7.50;4.00
73825;PMS5003;64145;55.060;73.168;2024-02-21T13:19:22;6.00;6.00;3.00
73825;PMS5003;64145;55.060;73.168;2024-02-21T13:21:48;7.00;7.00;5.50
73825;PMS5003;64145;55.060;73.168;2024-02-21T13:24:14;8.00;7.50;5.00
73825;PMS5003;64145;55.060;73.168;2024-02-21T13:26:50;9.50;8.00;3.00
73825;PMS5003;64145;55.060;73.168;2024-02-21T13:29:30;7.00;7.00;3.00
73825;PMS5003;64145;55.060;73.168;2024-02-21T13:31:55;8.00;7.50;3.50
73825;PMS5003;64145;55.060;73.168;2024-02-21T13:34:21;7.00;6.00;3.00
73825;PMS5003;64145;55.060;73.168;2024-02-21T13:36:47;6.50;6.00;3.00
73825;PMS5003;64145;55.060;73.168;2024-02-21T13:39:12;2.00;1.00;0.00
73825;PMS5003;64145;55.060;73.168;2024-02-21T13:41:56;6.00;5.00;3.00
73825;PMS5003;64145;55.060;73.168;2024-02-21T13:44:24;4.33;3.00;1.00
73825;PMS5003;64145;55.060;73.168;2024-02-21T13:46:50;7.00;6.00;2.00
73825;PMS5003;64145;55.060;73.168;2024-02-21T13:49:16;7.33;7.00;3.00
73825;PMS5003;64145;55.060;73.168;2024-02-21T13:51:42;3.00;3.00;1.00
73825;PMS5003;64145;55.060;73.168;2024-02-21T13:54:09;3.00;2.33;1.00
73825;PMS5003;64145;55.060;73.168;2024-02-21T13:56:37;3.00;3.00;1.00
73825;PMS5003;64145;55.060;73.168;2024-02-21T13:59:22;1.00;1.00;0.00
73825;PMS5003;64145;55.060;73.168;2024-02-21T14:01:47;3.00;3.00;3.00
73825;PMS5003;64145;55.060;73.168;2024-02-21T14:04:13;4.33;3.67;1.00
73825;PMS5003;64145;55.060;73.168;2024-02-21T14:06:39;6.00;5.00;2.00
73825;PMS5003;64145;55.060;73.168;2024-02-21T14:09:11;5.33;5.33;1.67
73825;PMS5003;64145;55.060;73.168;2024-02-21T14:11:37;7.50;7.00;3.00
73825;PMS5003;64145;55.060;73.168;2024-02-21T14:14:04;9.00;8.00;5.00
73825;PMS5003;64145;55.060;73.168;2024-02-21T14:16:30;8.00;5.00;3.00
73825;PMS5003;64145;55.060;73.168;2024-02-21T14:18:55;6.50;4.00;2.50
73825;PMS5003;64145;55.060;73.168;2024-02-21T14:21:21;6.00;3.00;2.00